sensor_id;sensor_type;location;lat;lon;timestamp;P1;durP1;ratioP1;P2;durP2;ratioP2
11535;SDS011;5824;49.336;8.652;2023-05-10T00:00:12;1.80;;;1.60;;
11535;SDS011;5824;49.336;8.652;2023-05-10T00:02:38;2.90;;;1.40;;
11535;SDS011;5824;49.336;8.652;2023-05-10T00:05:04;1.80;;;1.63;;
11535;SDS011;5824;49.336;8.652;2023-05-10T00:07:30;2.30;;;1.70;;
11535;SDS011;5824;49.336;8.652;2023-05-10T00:09:55;2.43;;;1.87;;
11535;SDS011;5824;49.336;8.652;2023-05-10T00:12:21;1.60;;;1.50;;
11535;SDS011;5824;49.336;8.652;2023-05-10T00:14:46;2.03;;;1.57;;
11535;SDS011;5824;49.336;8.652;2023-05-10T00:17:12;3.33;;;1.70;;
11535;SDS011;5824;49.336;8.652;2023-05-10T00:19:37;1.63;;;1.53;;
11535;SDS011;5824;49.336;8.652;2023-05-10T00:22:03;10.33;;;1.63;;
11535;SDS011;5824;49.336;8.652;2023-05-10T00:24:28;4.80;;;1.60;;
11535;SDS011;5824;49.336;8.652;2023-05-10T00:26:54;1.50;;;1.40;;
11535;SDS011;5824;49.336;8.652;2023-05-10T00:29:19;2.90;;;1.40;;
11535;SDS011;5824;49.336;8.652;2023-05-10T00:31:45;1.50;;;1.30;;
11535;SDS011;5824;49.336;8.652;2023-05-10T00:34:11;1.70;;;1.50;;
11535;SDS011;5824;49.336;8.652;2023-05-10T00:36:36;1.70;;;1.30;;
11535;SDS011;5824;49.336;8.652;2023-05-10T00:39:02;4.90;;;1.60;;
11535;SDS011;5824;49.336;8.652;2023-05-10T00:41:28;1.33;;;1.23;;
11535;SDS011;5824;49.336;8.652;2023-05-10T00:43:56;1.53;;;1.40;;
11535;SDS011;5824;49.336;8.652;2023-05-10T00:46:22;1.50;;;1.40;;
11535;SDS011;5824;49.336;8.652;2023-05-10T00:48:48;2.83;;;1.50;;
11535;SDS011;5824;49.336;8.652;2023-05-10T00:51:14;1.70;;;1.57;;
11535;SDS011;5824;49.336;8.652;2023-05-10T00:53:39;3.40;;;1.63;;
11535;SDS011;5824;49.336;8.652;2023-05-10T00:56:05;2.83;;;1.80;;
11535;SDS011;5824;49.336;8.652;2023-05-10T00:58:31;4.70;;;2.27;;
11535;SDS011;5824;49.336;8.652;2023-05-10T01:00:57;4.50;;;2.30;;
11535;SDS011;5824;49.336;8.652;2023-05-10T01:03:23;3.80;;;2.37;;
11535;SDS011;5824;49.336;8.652;2023-05-10T01:05:49;2.73;;;2.37;;
11535;SDS011;5824;49.336;8.652;2023-05-10T01:08:15;3.63;;;2.43;;
11535;SDS011;5824;49.336;8.652;2023-05-10T01:10:40;4.73;;;2.50;;
11535;SDS011;5824;49.336;8.652;2023-05-10T01:13:06;2.90;;;2.47;;
11535;SDS011;5824;49.336;8.652;2023-05-10T01:15:32;3.83;;;2.50;;
11535;SDS011;5824;49.336;8.652;2023-05-10T01:17:57;3.07;;;2.67;;
11535;SDS011;5824;49.336;8.652;2023-05-10T01:20:24;3.10;;;2.63;;
11535;SDS011;5824;49.336;8.652;2023-05-10T01:23:08;5.03;;;2.80;;
11535;SDS011;5824;49.336;8.652;2023-05-10T01:25:44;3.60;;;2.30;;
11535;SDS011;5824;49.336;8.652;2023-05-10T01:28:41;3.17;;;2.13;;
11535;SDS011;5824;49.336;8.652;2023-05-10T01:34:34;2.53;;;2.33;;
11535;SDS011;5824;49.336;8.652;2023-05-10T01:37:06;2.53;;;2.20;;
11535;SDS011;5824;49.336;8.652;2023-05-10T01:39:49;3.53;;;2.07;;
11535;SDS011;5824;49.336;8.652;2023-05-10T01:42:20;5.83;;;2.57;;
11535;SDS011;5824;49.336;8.652;2023-05-10T01:47:44;2.70;;;2.37;;
11535;SDS011;5824;49.336;8.652;2023-05-10T01:50:17;2.33;;;2.10;;
11535;SDS011;5824;49.336;8.652;2023-05-10T01:52:47;2.90;;;2.20;;
11535;SDS011;5824;49.336;8.652;2023-05-10T01:55:23;2.60;;;2.20;;
11535;SDS011;5824;49.336;8.652;2023-05-10T01:57:52;2.90;;;2.30;;
11535;SDS011;5824;49.336;8.652;2023-05-10T02:00:22;2.23;;;2.03;;
11535;SDS011;5824;49.336;8.652;2023-05-10T02:02:49;2.30;;;2.10;;
11535;SDS011;5824;49.336;8.652;2023-05-10T02:05:17;2.67;;;2.00;;
11535;SDS011;5824;49.336;8.652;2023-05-10T02:07:44;6.30;;;2.70;;
11535;SDS011;5824;49.336;8.652;2023-05-10T02:10:10;3.83;;;2.90;;
11535;SDS011;5824;49.336;8.652;2023-05-10T02:12:39;3.57;;;2.23;;
11535;SDS011;5824;49.336;8.652;2023-05-10T02:15:08;2.30;;;2.10;;
11535;SDS011;5824;49.336;8.652;2023-05-10T02:17:35;4.90;;;2.33;;
11535;SDS011;5824;49.336;8.652;2023-05-10T02:20:03;3.30;;;2.50;;
11535;SDS011;5824;49.336;8.652;2023-05-10T02:22:31;4.67;;;2.97;;
11535;SDS011;5824;49.336;8.652;2023-05-10T02:24:57;5.17;;;2.50;;
11535;SDS011;5824;49.336;8.652;2023-05-10T02:27:24;2.40;;;2.20;;
11535;SDS011;5824;49.336;8.652;2023-05-10T02:29:52;2.80;;;2.30;;
11535;SDS011;5824;49.336;8.652;2023-05-10T02:32:18;2.63;;;2.43;;
11535;SDS011;5824;49.336;8.652;2023-05-10T02:34:46;2.50;;;2.30;;
11535;SDS011;5824;49.336;8.652;2023-05-10T02:37:16;3.10;;;2.80;;
11535;SDS011;5824;49.336;8.652;2023-05-10T02:39:46;5.00;;;2.63;;
11535;SDS011;5824;49.336;8.652;2023-05-10T02:42:20;3.57;;;2.60;;
11535;SDS011;5824;49.336;8.652;2023-05-10T02:44:50;2.60;;;2.30;;
11535;SDS011;5824;49.336;8.652;2023-05-10T02:47:18;2.73;;;2.50;;
11535;SDS011;5824;49.336;8.652;2023-05-10T02:49:44;5.50;;;2.20;;
11535;SDS011;5824;49.336;8.652;2023-05-10T02:52:10;3.40;;;2.70;;
11535;SDS011;5824;49.336;8.652;2023-05-10T02:54:44;3.33;;;2.80;;
11535;SDS011;5824;49.336;8.652;2023-05-10T02:57:15;4.93;;;2.23;;
11535;SDS011;5824;49.336;8.652;2023-05-10T02:59:45;3.40;;;2.50;;
11535;SDS011;5824;49.336;8.652;2023-05-10T03:02:12;2.67;;;2.47;;
11535;SDS011;5824;49.336;8.652;2023-05-10T03:04:38;7.70;;;3.30;;
11535;SDS011;5824;49.336;8.652;2023-05-10T03:07:03;3.10;;;2.80;;
11535;SDS011;5824;49.336;8.652;2023-05-10T03:09:29;4.40;;;3.20;;
11535;SDS011;5824;49.336;8.652;2023-05-10T03:17:11;3.57;;;3.00;;
11535;SDS011;5824;49.336;8.652;2023-05-10T03:19:48;5.70;;;2.70;;
11535;SDS011;5824;49.336;8.652;2023-05-10T03:22:30;4.57;;;2.70;;
11535;SDS011;5824;49.336;8.652;2023-05-10T03:24:59;3.20;;;2.60;;
11535;SDS011;5824;49.336;8.652;2023-05-10T03:27:30;6.30;;;3.20;;
11535;SDS011;5824;49.336;8.652;2023-05-10T03:29:57;7.90;;;3.17;;
11535;SDS011;5824;49.336;8.652;2023-05-10T03:32:23;5.13;;;2.77;;
11535;SDS011;5824;49.336;8.652;2023-05-10T03:34:48;4.47;;;2.83;;
11535;SDS011;5824;49.336;8.652;2023-05-10T03:37:14;3.10;;;2.83;;
11535;SDS011;5824;49.336;8.652;2023-05-10T03:39:39;6.27;;;3.10;;
11535;SDS011;5824;49.336;8.652;2023-05-10T03:42:05;6.37;;;3.20;;
11535;SDS011;5824;49.336;8.652;2023-05-10T03:44:31;11.30;;;3.33;;
11535;SDS011;5824;49.336;8.652;2023-05-10T03:46:58;8.93;;;4.10;;
11535;SDS011;5824;49.336;8.652;2023-05-10T03:49:23;3.87;;;3.40;;
11535;SDS011;5824;49.336;8.652;2023-05-10T03:51:49;4.20;;;3.57;;
11535;SDS011;5824;49.336;8.652;2023-05-10T03:54:14;3.83;;;3.20;;
11535;SDS011;5824;49.336;8.652;2023-05-10T03:56:40;5.90;;;3.60;;
11535;SDS011;5824;49.336;8.652;2023-05-10T03:59:05;5.73;;;3.40;;
11535;SDS011;5824;49.336;8.652;2023-05-10T04:01:34;3.90;;;3.50;;
11535;SDS011;5824;49.336;8.652;2023-05-10T04:04:00;4.90;;;3.50;;
11535;SDS011;5824;49.336;8.652;2023-05-10T04:06:26;6.70;;;3.83;;
11535;SDS011;5824;49.336;8.652;2023-05-10T04:08:51;5.33;;;3.77;;
11535;SDS011;5824;49.336;8.652;2023-05-10T04:11:16;7.80;;;4.13;;
11535;SDS011;5824;49.336;8.652;2023-05-10T04:13:42;10.37;;;4.30;;
11535;SDS011;5824;49.336;8.652;2023-05-10T04:16:08;5.50;;;4.00;;
11535;SDS011;5824;49.336;8.652;2023-05-10T04:18:33;6.90;;;4.00;;
11535;SDS011;5824;49.336;8.652;2023-05-10T04:20:59;7.20;;;5.30;;
11535;SDS011;5824;49.336;8.652;2023-05-10T04:23:25;6.43;;;4.10;;
11535;SDS011;5824;49.336;8.652;2023-05-10T04:25:51;10.80;;;4.13;;
11535;SDS011;5824;49.336;8.652;2023-05-10T04:28:17;5.30;;;4.13;;
11535;SDS011;5824;49.336;8.652;2023-05-10T04:30:43;4.93;;;3.73;;
11535;SDS011;5824;49.336;8.652;2023-05-10T04:33:08;8.70;;;3.90;;
11535;SDS011;5824;49.336;8.652;2023-05-10T04:35:34;4.97;;;4.10;;
11535;SDS011;5824;49.336;8.652;2023-05-10T04:38:00;6.27;;;4.67;;
11535;SDS011;5824;49.336;8.652;2023-05-10T04:40:25;4.90;;;4.00;;
11535;SDS011;5824;49.336;8.652;2023-05-10T04:42:51;7.10;;;4.03;;
11535;SDS011;5824;49.336;8.652;2023-05-10T04:45:16;5.67;;;4.17;;
11535;SDS011;5824;49.336;8.652;2023-05-10T04:47:42;4.83;;;4.07;;
11535;SDS011;5824;49.336;8.652;2023-05-10T04:50:07;4.80;;;4.30;;
11535;SDS011;5824;49.336;8.652;2023-05-10T04:52:33;9.07;;;4.50;;
11535;SDS011;5824;49.336;8.652;2023-05-10T04:54:59;7.30;;;4.50;;
11535;SDS011;5824;49.336;8.652;2023-05-10T04:57:24;4.60;;;4.07;;
11535;SDS011;5824;49.336;8.652;2023-05-10T04:59:50;6.47;;;5.20;;
11535;SDS011;5824;49.336;8.652;2023-05-10T05:02:16;8.60;;;5.17;;
11535;SDS011;5824;49.336;8.652;2023-05-10T05:04:41;9.37;;;4.53;;
11535;SDS011;5824;49.336;8.652;2023-05-10T05:07:07;8.70;;;5.10;;
11535;SDS011;5824;49.336;8.652;2023-05-10T05:09:32;7.13;;;5.20;;
11535;SDS011;5824;49.336;8.652;2023-05-10T05:11:58;11.70;;;5.13;;
11535;SDS011;5824;49.336;8.652;2023-05-10T05:14:23;6.50;;;5.30;;
11535;SDS011;5824;49.336;8.652;2023-05-10T05:16:52;5.80;;;5.20;;
11535;SDS011;5824;49.336;8.652;2023-05-10T05:19:17;5.53;;;5.03;;
11535;SDS011;5824;49.336;8.652;2023-05-10T05:21:43;7.03;;;5.27;;
11535;SDS011;5824;49.336;8.652;2023-05-10T05:24:09;5.80;;;5.07;;
11535;SDS011;5824;49.336;8.652;2023-05-10T05:26:37;7.27;;;5.40;;
11535;SDS011;5824;49.336;8.652;2023-05-10T05:29:03;9.47;;;5.10;;
11535;SDS011;5824;49.336;8.652;2023-05-10T05:31:28;6.10;;;5.00;;
11535;SDS011;5824;49.336;8.652;2023-05-10T05:33:54;5.80;;;5.20;;
11535;SDS011;5824;49.336;8.652;2023-05-10T05:36:20;7.43;;;5.10;;
11535;SDS011;5824;49.336;8.652;2023-05-10T05:38:46;8.10;;;4.63;;
11535;SDS011;5824;49.336;8.652;2023-05-10T05:41:12;6.93;;;5.07;;
11535;SDS011;5824;49.336;8.652;2023-05-10T05:43:37;9.53;;;4.90;;
11535;SDS011;5824;49.336;8.652;2023-05-10T05:46:02;6.27;;;5.67;;
11535;SDS011;5824;49.336;8.652;2023-05-10T05:48:29;7.50;;;5.43;;
11535;SDS011;5824;49.336;8.652;2023-05-10T05:50:55;6.27;;;4.80;;
11535;SDS011;5824;49.336;8.652;2023-05-10T05:53:24;7.10;;;5.30;;
11535;SDS011;5824;49.336;8.652;2023-05-10T05:55:56;8.75;;;5.60;;
11535;SDS011;5824;49.336;8.652;2023-05-10T05:58:23;5.97;;;5.47;;
11535;SDS011;5824;49.336;8.652;2023-05-10T06:00:49;6.37;;;5.37;;
11535;SDS011;5824;49.336;8.652;2023-05-10T06:03:15;6.00;;;5.40;;
11535;SDS011;5824;49.336;8.652;2023-05-10T06:05:40;6.63;;;5.60;;
11535;SDS011;5824;49.336;8.652;2023-05-10T06:08:06;9.77;;;5.80;;
11535;SDS011;5824;49.336;8.652;2023-05-10T06:10:31;7.57;;;5.37;;
11535;SDS011;5824;49.336;8.652;2023-05-10T06:12:57;6.70;;;5.07;;
11535;SDS011;5824;49.336;8.652;2023-05-10T06:15:22;7.97;;;5.93;;
11535;SDS011;5824;49.336;8.652;2023-05-10T06:17:48;7.07;;;5.60;;
11535;SDS011;5824;49.336;8.652;2023-05-10T06:20:14;7.50;;;5.40;;
11535;SDS011;5824;49.336;8.652;2023-05-10T06:22:40;6.87;;;5.80;;
11535;SDS011;5824;49.336;8.652;2023-05-10T06:25:06;6.30;;;4.90;;
11535;SDS011;5824;49.336;8.652;2023-05-10T06:27:32;6.10;;;5.50;;
11535;SDS011;5824;49.336;8.652;2023-05-10T06:29:58;6.50;;;5.60;;
11535;SDS011;5824;49.336;8.652;2023-05-10T06:32:23;6.67;;;5.37;;
11535;SDS011;5824;49.336;8.652;2023-05-10T06:34:49;7.47;;;5.23;;
11535;SDS011;5824;49.336;8.652;2023-05-10T06:37:14;5.90;;;5.30;;
11535;SDS011;5824;49.336;8.652;2023-05-10T06:39:40;5.20;;;4.70;;
11535;SDS011;5824;49.336;8.652;2023-05-10T06:42:05;7.33;;;5.10;;
11535;SDS011;5824;49.336;8.652;2023-05-10T06:44:31;12.10;;;5.53;;
11535;SDS011;5824;49.336;8.652;2023-05-10T06:46:56;5.40;;;4.87;;
11535;SDS011;5824;49.336;8.652;2023-05-10T06:49:22;5.20;;;4.60;;
11535;SDS011;5824;49.336;8.652;2023-05-10T06:51:47;7.23;;;4.60;;
11535;SDS011;5824;49.336;8.652;2023-05-10T06:54:13;6.53;;;4.73;;
11535;SDS011;5824;49.336;8.652;2023-05-10T06:56:39;4.60;;;4.20;;
11535;SDS011;5824;49.336;8.652;2023-05-10T06:59:04;5.17;;;4.30;;
11535;SDS011;5824;49.336;8.652;2023-05-10T07:01:30;5.23;;;3.50;;
11535;SDS011;5824;49.336;8.652;2023-05-10T07:03:55;5.43;;;4.90;;
11535;SDS011;5824;49.336;8.652;2023-05-10T07:06:21;4.77;;;4.27;;
11535;SDS011;5824;49.336;8.652;2023-05-10T07:08:47;7.17;;;3.90;;
11535;SDS011;5824;49.336;8.652;2023-05-10T07:11:12;4.00;;;3.70;;
11535;SDS011;5824;49.336;8.652;2023-05-10T07:13:38;4.63;;;4.10;;
11535;SDS011;5824;49.336;8.652;2023-05-10T07:16:06;4.50;;;4.10;;
11535;SDS011;5824;49.336;8.652;2023-05-10T07:18:32;5.30;;;4.03;;
11535;SDS011;5824;49.336;8.652;2023-05-10T07:20:58;5.77;;;4.43;;
11535;SDS011;5824;49.336;8.652;2023-05-10T07:23:23;6.53;;;4.23;;
11535;SDS011;5824;49.336;8.652;2023-05-10T07:25:50;6.13;;;3.80;;
11535;SDS011;5824;49.336;8.652;2023-05-10T07:28:19;6.03;;;3.90;;
11535;SDS011;5824;49.336;8.652;2023-05-10T07:30:45;4.63;;;4.13;;
11535;SDS011;5824;49.336;8.652;2023-05-10T07:33:12;7.00;;;4.73;;
11535;SDS011;5824;49.336;8.652;2023-05-10T07:35:38;8.93;;;4.20;;
11535;SDS011;5824;49.336;8.652;2023-05-10T07:38:04;4.20;;;3.80;;
11535;SDS011;5824;49.336;8.652;2023-05-10T07:40:30;4.73;;;3.77;;
11535;SDS011;5824;49.336;8.652;2023-05-10T07:42:56;5.10;;;3.70;;
11535;SDS011;5824;49.336;8.652;2023-05-10T07:45:22;4.10;;;3.70;;
11535;SDS011;5824;49.336;8.652;2023-05-10T07:47:48;5.70;;;4.00;;
11535;SDS011;5824;49.336;8.652;2023-05-10T07:50:13;6.97;;;4.13;;
11535;SDS011;5824;49.336;8.652;2023-05-10T07:52:39;5.13;;;3.83;;
11535;SDS011;5824;49.336;8.652;2023-05-10T07:55:05;3.83;;;3.47;;
11535;SDS011;5824;49.336;8.652;2023-05-10T07:57:32;4.67;;;3.90;;
11535;SDS011;5824;49.336;8.652;2023-05-10T07:59:58;4.73;;;3.70;;
11535;SDS011;5824;49.336;8.652;2023-05-10T08:02:23;4.80;;;4.30;;
11535;SDS011;5824;49.336;8.652;2023-05-10T08:04:49;4.30;;;3.90;;
11535;SDS011;5824;49.336;8.652;2023-05-10T08:07:15;5.60;;;4.00;;
11535;SDS011;5824;49.336;8.652;2023-05-10T08:09:40;4.57;;;4.07;;
11535;SDS011;5824;49.336;8.652;2023-05-10T08:12:06;3.80;;;3.40;;
11535;SDS011;5824;49.336;8.652;2023-05-10T08:14:31;7.70;;;4.07;;
11535;SDS011;5824;49.336;8.652;2023-05-10T08:16:57;4.30;;;3.90;;
11535;SDS011;5824;49.336;8.652;2023-05-10T08:19:22;6.07;;;3.50;;
11535;SDS011;5824;49.336;8.652;2023-05-10T08:21:48;3.43;;;2.97;;
11535;SDS011;5824;49.336;8.652;2023-05-10T08:24:14;4.20;;;3.80;;
11535;SDS011;5824;49.336;8.652;2023-05-10T08:26:39;4.40;;;3.70;;
11535;SDS011;5824;49.336;8.652;2023-05-10T08:29:05;8.47;;;3.53;;
11535;SDS011;5824;49.336;8.652;2023-05-10T08:31:30;7.07;;;3.57;;
11535;SDS011;5824;49.336;8.652;2023-05-10T08:33:56;5.40;;;3.20;;
11535;SDS011;5824;49.336;8.652;2023-05-10T08:36:22;4.93;;;3.67;;
11535;SDS011;5824;49.336;8.652;2023-05-10T08:38:52;5.37;;;3.40;;
11535;SDS011;5824;49.336;8.652;2023-05-10T08:41:21;4.87;;;3.17;;
11535;SDS011;5824;49.336;8.652;2023-05-10T08:43:50;4.13;;;2.60;;
11535;SDS011;5824;49.336;8.652;2023-05-10T08:46:17;4.43;;;2.33;;
11535;SDS011;5824;49.336;8.652;2023-05-10T08:48:47;4.90;;;3.00;;
11535;SDS011;5824;49.336;8.652;2023-05-10T08:51:14;4.50;;;2.63;;
11535;SDS011;5824;49.336;8.652;2023-05-10T08:53:42;5.13;;;3.00;;
11535;SDS011;5824;49.336;8.652;2023-05-10T08:56:09;3.10;;;2.40;;
11535;SDS011;5824;49.336;8.652;2023-05-10T08:58:34;3.60;;;2.53;;
11535;SDS011;5824;49.336;8.652;2023-05-10T09:01:01;4.40;;;2.40;;
11535;SDS011;5824;49.336;8.652;2023-05-10T09:03:28;2.63;;;2.33;;
11535;SDS011;5824;49.336;8.652;2023-05-10T09:05:53;8.13;;;2.60;;
11535;SDS011;5824;49.336;8.652;2023-05-10T09:08:22;3.47;;;2.10;;
11535;SDS011;5824;49.336;8.652;2023-05-10T09:10:50;4.40;;;2.20;;
11535;SDS011;5824;49.336;8.652;2023-05-10T09:13:16;7.10;;;2.23;;
11535;SDS011;5824;49.336;8.652;2023-05-10T09:15:43;4.53;;;2.43;;
11535;SDS011;5824;49.336;8.652;2023-05-10T09:18:09;3.47;;;2.20;;
11535;SDS011;5824;49.336;8.652;2023-05-10T09:20:35;3.07;;;2.10;;
11535;SDS011;5824;49.336;8.652;2023-05-10T09:23:01;3.20;;;2.00;;
11535;SDS011;5824;49.336;8.652;2023-05-10T09:25:26;2.40;;;1.90;;
11535;SDS011;5824;49.336;8.652;2023-05-10T09:27:52;3.40;;;2.00;;
11535;SDS011;5824;49.336;8.652;2023-05-10T09:32:51;4.00;;;2.37;;
11535;SDS011;5824;49.336;8.652;2023-05-10T09:35:18;3.33;;;1.80;;
11535;SDS011;5824;49.336;8.652;2023-05-10T09:37:46;2.90;;;2.10;;
11535;SDS011;5824;49.336;8.652;2023-05-10T09:40:14;3.27;;;2.10;;
11535;SDS011;5824;49.336;8.652;2023-05-10T09:42:42;3.03;;;2.07;;
11535;SDS011;5824;49.336;8.652;2023-05-10T09:45:15;2.37;;;1.80;;
11535;SDS011;5824;49.336;8.652;2023-05-10T09:47:40;4.23;;;1.77;;
11535;SDS011;5824;49.336;8.652;2023-05-10T09:50:06;3.13;;;1.60;;
11535;SDS011;5824;49.336;8.652;2023-05-10T09:55:21;9.60;;;1.90;;
11535;SDS011;5824;49.336;8.652;2023-05-10T09:57:48;2.50;;;1.80;;
11535;SDS011;5824;49.336;8.652;2023-05-10T10:00:22;2.50;;;1.80;;
11535;SDS011;5824;49.336;8.652;2023-05-10T10:02:54;3.57;;;1.93;;
11535;SDS011;5824;49.336;8.652;2023-05-10T10:05:21;4.47;;;2.10;;
11535;SDS011;5824;49.336;8.652;2023-05-10T10:07:53;2.80;;;1.80;;
11535;SDS011;5824;49.336;8.652;2023-05-10T10:10:20;2.50;;;2.00;;
11535;SDS011;5824;49.336;8.652;2023-05-10T10:12:45;3.43;;;1.90;;
11535;SDS011;5824;49.336;8.652;2023-05-10T10:15:11;3.63;;;1.73;;
11535;SDS011;5824;49.336;8.652;2023-05-10T10:17:37;3.33;;;1.83;;
11535;SDS011;5824;49.336;8.652;2023-05-10T10:20:04;3.23;;;2.00;;
11535;SDS011;5824;49.336;8.652;2023-05-10T10:22:30;2.43;;;1.70;;
11535;SDS011;5824;49.336;8.652;2023-05-10T10:24:55;2.60;;;1.67;;
11535;SDS011;5824;49.336;8.652;2023-05-10T10:35:26;2.63;;;1.40;;
11535;SDS011;5824;49.336;8.652;2023-05-10T10:37:54;6.13;;;1.67;;
11535;SDS011;5824;49.336;8.652;2023-05-10T10:40:23;1.97;;;1.30;;
11535;SDS011;5824;49.336;8.652;2023-05-10T10:42:53;4.43;;;1.80;;
11535;SDS011;5824;49.336;8.652;2023-05-10T10:45:19;3.50;;;1.87;;
11535;SDS011;5824;49.336;8.652;2023-05-10T10:47:46;3.50;;;1.50;;
11535;SDS011;5824;49.336;8.652;2023-05-10T10:50:12;5.50;;;1.30;;
11535;SDS011;5824;49.336;8.652;2023-05-10T10:52:38;3.30;;;1.30;;
11535;SDS011;5824;49.336;8.652;2023-05-10T10:55:09;8.50;;;1.40;;
11535;SDS011;5824;49.336;8.652;2023-05-10T11:05:45;2.30;;;1.23;;
11535;SDS011;5824;49.336;8.652;2023-05-10T11:08:27;2.20;;;1.20;;
11535;SDS011;5824;49.336;8.652;2023-05-10T11:13:38;2.97;;;1.23;;
11535;SDS011;5824;49.336;8.652;2023-05-10T11:18:39;3.50;;;1.43;;
11535;SDS011;5824;49.336;8.652;2023-05-10T11:21:05;3.27;;;1.60;;
11535;SDS011;5824;49.336;8.652;2023-05-10T11:26:13;4.77;;;1.20;;
11535;SDS011;5824;49.336;8.652;2023-05-10T11:28:45;2.40;;;1.33;;
11535;SDS011;5824;49.336;8.652;2023-05-10T11:31:17;2.40;;;1.40;;
11535;SDS011;5824;49.336;8.652;2023-05-10T11:36:19;3.13;;;1.87;;
11535;SDS011;5824;49.336;8.652;2023-05-10T11:38:46;2.77;;;1.40;;
11535;SDS011;5824;49.336;8.652;2023-05-10T11:41:13;2.60;;;1.50;;
11535;SDS011;5824;49.336;8.652;2023-05-10T11:43:39;3.23;;;1.60;;
11535;SDS011;5824;49.336;8.652;2023-05-10T11:46:06;3.57;;;1.70;;
11535;SDS011;5824;49.336;8.652;2023-05-10T11:48:32;2.47;;;1.40;;
11535;SDS011;5824;49.336;8.652;2023-05-10T11:50:58;3.10;;;1.60;;
11535;SDS011;5824;49.336;8.652;2023-05-10T11:53:25;3.63;;;1.80;;
11535;SDS011;5824;49.336;8.652;2023-05-10T11:55:52;7.63;;;1.97;;
11535;SDS011;5824;49.336;8.652;2023-05-10T11:58:17;3.90;;;1.90;;
11535;SDS011;5824;49.336;8.652;2023-05-10T12:00:43;4.60;;;2.10;;
11535;SDS011;5824;49.336;8.652;2023-05-10T12:03:10;3.90;;;1.90;;
11535;SDS011;5824;49.336;8.652;2023-05-10T12:05:36;7.40;;;1.90;;
11535;SDS011;5824;49.336;8.652;2023-05-10T12:08:14;9.90;;;2.10;;
11535;SDS011;5824;49.336;8.652;2023-05-10T12:10:45;4.83;;;1.90;;
11535;SDS011;5824;49.336;8.652;2023-05-10T12:13:11;3.07;;;1.60;;
11535;SDS011;5824;49.336;8.652;2023-05-10T12:15:38;2.87;;;1.70;;
11535;SDS011;5824;49.336;8.652;2023-05-10T12:18:03;10.03;;;1.93;;
11535;SDS011;5824;49.336;8.652;2023-05-10T12:20:30;3.77;;;1.90;;
11535;SDS011;5824;49.336;8.652;2023-05-10T12:22:57;3.50;;;1.73;;
11535;SDS011;5824;49.336;8.652;2023-05-10T12:25:24;3.80;;;1.80;;
11535;SDS011;5824;49.336;8.652;2023-05-10T12:27:55;3.70;;;1.80;;
11535;SDS011;5824;49.336;8.652;2023-05-10T12:30:25;4.87;;;1.80;;
11535;SDS011;5824;49.336;8.652;2023-05-10T12:32:52;5.40;;;1.40;;
11535;SDS011;5824;49.336;8.652;2023-05-10T12:35:18;3.03;;;1.63;;
11535;SDS011;5824;49.336;8.652;2023-05-10T12:37:49;10.07;;;1.80;;
11535;SDS011;5824;49.336;8.652;2023-05-10T12:40:15;3.50;;;1.80;;
11535;SDS011;5824;49.336;8.652;2023-05-10T12:42:41;5.43;;;1.60;;
11535;SDS011;5824;49.336;8.652;2023-05-10T12:45:07;4.73;;;1.60;;
11535;SDS011;5824;49.336;8.652;2023-05-10T12:47:33;3.43;;;1.67;;
11535;SDS011;5824;49.336;8.652;2023-05-10T12:50:00;4.03;;;1.50;;
11535;SDS011;5824;49.336;8.652;2023-05-10T12:52:26;4.23;;;1.80;;
11535;SDS011;5824;49.336;8.652;2023-05-10T12:54:52;3.40;;;1.47;;
11535;SDS011;5824;49.336;8.652;2023-05-10T12:57:18;2.90;;;1.70;;
11535;SDS011;5824;49.336;8.652;2023-05-10T12:59:47;3.23;;;1.80;;
11535;SDS011;5824;49.336;8.652;2023-05-10T13:02:12;3.10;;;1.70;;
11535;SDS011;5824;49.336;8.652;2023-05-10T13:04:39;3.40;;;1.83;;
11535;SDS011;5824;49.336;8.652;2023-05-10T13:07:06;2.97;;;1.50;;
11535;SDS011;5824;49.336;8.652;2023-05-10T13:09:31;3.90;;;1.53;;
11535;SDS011;5824;49.336;8.652;2023-05-10T13:11:57;3.67;;;1.60;;
11535;SDS011;5824;49.336;8.652;2023-05-10T13:14:22;3.23;;;1.93;;
11535;SDS011;5824;49.336;8.652;2023-05-10T13:16:48;4.00;;;1.90;;
11535;SDS011;5824;49.336;8.652;2023-05-10T13:19:15;4.27;;;1.97;;
11535;SDS011;5824;49.336;8.652;2023-05-10T13:21:41;2.73;;;1.67;;
11535;SDS011;5824;49.336;8.652;2023-05-10T13:24:06;6.33;;;1.90;;
11535;SDS011;5824;49.336;8.652;2023-05-10T13:26:32;3.10;;;1.50;;
11535;SDS011;5824;49.336;8.652;2023-05-10T13:28:58;4.30;;;1.90;;
11535;SDS011;5824;49.336;8.652;2023-05-10T13:31:23;2.70;;;1.60;;
11535;SDS011;5824;49.336;8.652;2023-05-10T13:33:49;2.27;;;1.40;;
11535;SDS011;5824;49.336;8.652;2023-05-10T13:36:15;3.60;;;1.67;;
11535;SDS011;5824;49.336;8.652;2023-05-10T13:38:40;5.70;;;1.63;;
11535;SDS011;5824;49.336;8.652;2023-05-10T13:41:06;2.83;;;1.50;;
11535;SDS011;5824;49.336;8.652;2023-05-10T13:43:31;3.67;;;1.40;;
11535;SDS011;5824;49.336;8.652;2023-05-10T13:45:57;2.87;;;1.43;;
11535;SDS011;5824;49.336;8.652;2023-05-10T13:48:22;3.93;;;1.57;;
11535;SDS011;5824;49.336;8.652;2023-05-10T13:50:48;6.07;;;1.47;;
11535;SDS011;5824;49.336;8.652;2023-05-10T13:53:14;5.33;;;1.40;;
11535;SDS011;5824;49.336;8.652;2023-05-10T13:55:39;4.00;;;1.50;;
11535;SDS011;5824;49.336;8.652;2023-05-10T13:58:06;5.03;;;1.57;;
11535;SDS011;5824;49.336;8.652;2023-05-10T14:00:31;3.40;;;1.33;;
11535;SDS011;5824;49.336;8.652;2023-05-10T14:02:57;4.20;;;1.30;;
11535;SDS011;5824;49.336;8.652;2023-05-10T14:05:22;3.70;;;1.30;;
11535;SDS011;5824;49.336;8.652;2023-05-10T14:07:48;3.33;;;1.37;;
11535;SDS011;5824;49.336;8.652;2023-05-10T14:10:15;2.97;;;1.60;;
11535;SDS011;5824;49.336;8.652;2023-05-10T14:12:40;8.53;;;1.60;;
11535;SDS011;5824;49.336;8.652;2023-05-10T14:15:06;2.70;;;1.30;;
11535;SDS011;5824;49.336;8.652;2023-05-10T14:17:32;2.07;;;1.20;;
11535;SDS011;5824;49.336;8.652;2023-05-10T14:19:57;4.63;;;1.67;;
11535;SDS011;5824;49.336;8.652;2023-05-10T14:22:23;2.73;;;1.43;;
11535;SDS011;5824;49.336;8.652;2023-05-10T14:24:48;3.40;;;1.40;;
11535;SDS011;5824;49.336;8.652;2023-05-10T14:27:15;2.67;;;1.47;;
11535;SDS011;5824;49.336;8.652;2023-05-10T14:29:40;2.30;;;1.27;;
11535;SDS011;5824;49.336;8.652;2023-05-10T14:32:06;2.43;;;1.30;;
11535;SDS011;5824;49.336;8.652;2023-05-10T14:34:32;8.20;;;1.40;;
11535;SDS011;5824;49.336;8.652;2023-05-10T14:36:57;5.73;;;1.40;;
11535;SDS011;5824;49.336;8.652;2023-05-10T14:39:23;3.53;;;1.40;;
11535;SDS011;5824;49.336;8.652;2023-05-10T14:41:48;5.43;;;1.40;;
11535;SDS011;5824;49.336;8.652;2023-05-10T14:44:16;2.30;;;1.20;;
11535;SDS011;5824;49.336;8.652;2023-05-10T14:46:41;5.40;;;1.20;;
11535;SDS011;5824;49.336;8.652;2023-05-10T14:49:07;2.30;;;1.23;;
11535;SDS011;5824;49.336;8.652;2023-05-10T14:51:32;2.77;;;1.10;;
11535;SDS011;5824;49.336;8.652;2023-05-10T14:53:58;2.77;;;1.47;;
11535;SDS011;5824;49.336;8.652;2023-05-10T14:56:24;4.43;;;1.27;;
11535;SDS011;5824;49.336;8.652;2023-05-10T14:58:50;4.93;;;1.50;;
11535;SDS011;5824;49.336;8.652;2023-05-10T15:01:16;3.80;;;1.30;;
11535;SDS011;5824;49.336;8.652;2023-05-10T15:03:42;2.90;;;1.20;;
11535;SDS011;5824;49.336;8.652;2023-05-10T15:06:07;4.90;;;1.40;;
11535;SDS011;5824;49.336;8.652;2023-05-10T15:08:33;2.43;;;1.40;;
11535;SDS011;5824;49.336;8.652;2023-05-10T15:10:59;4.00;;;1.60;;
11535;SDS011;5824;49.336;8.652;2023-05-10T15:13:24;5.33;;;1.60;;
11535;SDS011;5824;49.336;8.652;2023-05-10T15:15:50;2.90;;;1.30;;
11535;SDS011;5824;49.336;8.652;2023-05-10T15:18:16;2.20;;;1.30;;
11535;SDS011;5824;49.336;8.652;2023-05-10T15:20:41;2.70;;;1.33;;
11535;SDS011;5824;49.336;8.652;2023-05-10T15:23:07;3.30;;;1.20;;
11535;SDS011;5824;49.336;8.652;2023-05-10T15:25:32;2.90;;;1.23;;
11535;SDS011;5824;49.336;8.652;2023-05-10T15:28:00;4.37;;;1.40;;
11535;SDS011;5824;49.336;8.652;2023-05-10T15:30:28;2.00;;;1.20;;
11535;SDS011;5824;49.336;8.652;2023-05-10T15:32:54;3.37;;;1.30;;
11535;SDS011;5824;49.336;8.652;2023-05-10T15:35:20;2.83;;;1.40;;
11535;SDS011;5824;49.336;8.652;2023-05-10T15:37:47;2.13;;;1.20;;
11535;SDS011;5824;49.336;8.652;2023-05-10T15:40:14;2.20;;;1.40;;